New York, NY (10013)

11:15 AM EDT on August 30, 2014 (GMT -0400)
Williamsburg | Change Station
CLOSE
Current Station
Personal Weather Station
Location: Brooklyn, NY
Elevation: 64 ft
Nearby Weather Stations

Elev 64 ft 40.72 °N, 73.96 °W | Updated 41 seconds ago

Partly Cloudy
Partly Cloudy
75.7 °F
Feels Like 78 °F
N
6.0
Wind Variable Wind from South
Gusts 6.9 mph

Today
High -- | Low -- °F
--% Chance of Precip.
Yesterday
High -- | Low -- °F
Precip. -- in
6:21 AM 7:31 PM
Waxing Crescent, 22% visible
Pressure 30.28 in
Visibility 10.0 miles
Clouds Few 3800 ft
Heat Index 78 °F
Dew Point 48 °F
Humidity 38%
Rainfall 0.00 in
Snow Depth Not available.
UV 6 out of 12
Pollen 8.90 out of 12
Ozone Good
PM2.5 Good
Flu Activity Not available.
METAR KNYC 301451Z AUTO VRB03KT 10SM FEW038 24/13 A3028

More Conditions Fewer Conditions

Pressure 30.28 in
Visibility 10.0 miles
Clouds Few 3800 ft
Heat Index 78 °F
Dew Point 48 °F
Humidity 38%
Rainfall 0.00 in
Snow Depth Not available.
UV 6 out of 12
Pollen 8.90 out of 12
Ozone Good
PM2.5 Good
Flu Activity Not available.
METAR KNYC 301451Z AUTO VRB03KT 10SM FEW038 24/13 A3028

More Conditions Fewer Conditions

10-Day Weather Forecast

Almanac

Astronomy

Aug. 30, 2014 Rise Set
Actual Time 6:21 AM EDT 7:31 PM EDT
Civil Twilight 5:52 AM EDT 7:59 PM EDT
Nautical Twilight 5:19 AM EDT 8:33 PM EDT
Astronomical Twilight 4:43 AM EDT 9:08 PM EDT
Moon 11:07 AM EDT 10:02 PM EDT
Length of Visible Light 14h 06m
Length of Day
13h 10m
Tomorrow will be 2m 34s shorter.
Waxing Crescent, 22% of the Moon is Illuminated
Today
Waxing Crescent
Sep 2
First Quarter
Sep 8
Full
Sep 15
Last Quarter
Sep 24
New

Today's Extremes

State Highs State Lows

Community

WunderPhotos

Upload Photos

1,748,543 photos uploaded!

WunderBlogs® & News

Nearby

Air Quality

  Air Quality AQ Index Pollutant
Yesterday Good
OZONE
Yesterday Good
PM2.5
Current Good
OZONE
Current Good
PM2.5
Saturday Good
PM2.5
Saturday Good
OZONE
Sunday Moderate
PM2.5
Sunday Moderate
OZONE
Monday Moderate
PM2.5
Monday Moderate
OZONE
Tuesday Moderate
OZONE
Tuesday Moderate
PM2.5

Snow Depth

Station Depth Elevation
No new snow has been reported.

Earthquake Activity

City Distance Mag. Time & Date
No recent earthquake activity has been reported nearby.
Minimum magnitude displayed is 2.5.

Coastal Water Temperatures

Place Temperature
Sandy Hook, NJ 73.9 °F
The Battery, NY 73.9 °F
Bergen Point West Reach, NJ 73.9 °F
Kings Point, NY 73.0 °F

Nearby Weather Stations